Time;durP1;ratioP1;P1;durP2;ratioP2;P2;SDS_P1;SDS_P2;PMS_P1;PMS_P2;Temp;Humidity;BMP_temperature;BMP_pressure;BME280_temperature;BME280_humidity;BME280_pressure;Samples;Min_cycle;Max_cycle;Signal;HPM_P1;HPM_P2
2024/04/15 00:02:21;;;;;;;2.60;1.30;;;;;;;10.21;62.41;100930.44;9038580;26;20013;-79
2024/04/15 00:06:23;;;;;;;4.47;1.58;;;;;;;10.15;62.03;100914.19;9011842;26;20018;-79
2024/04/15 00:10:26;;;;;;;8.55;1.73;;;;;;;10.19;60.87;100918.19;9038095;26;20010;-79
2024/04/15 00:14:27;;;;;;;4.47;1.65;;;;;;;10.18;60.88;100912.00;9037694;26;20007;-78
2024/04/15 00:18:29;;;;;;;5.07;1.60;;;;;;;10.08;60.92;100907.84;8978714;26;20088;-78
2024/04/15 00:22:31;;;;;;;5.57;1.58;;;;;;;10.54;59.97;100898.22;8980109;26;20004;-79
2024/04/15 00:26:32;;;;;;;6.60;2.45;;;;;;;10.65;60.52;100888.97;9008655;26;20013;-79
2024/04/15 00:30:34;;;;;;;6.30;1.52;;;;;;;10.63;60.12;100880.28;9038955;26;20017;-79
2024/04/15 00:34:36;;;;;;;6.55;1.60;;;;;;;10.36;58.99;100902.97;9041681;26;20013;-78
2024/04/15 00:38:37;;;;;;;3.20;1.65;;;;;;;10.63;60.00;100891.81;9047059;26;20003;-80
2024/04/15 00:42:39;;;;;;;5.85;1.92;;;;;;;10.67;58.80;100911.06;9063260;26;20048;-79
2024/04/15 00:46:41;;;;;;;4.68;1.70;;;;;;;10.71;59.77;100909.69;9029518;26;20116;-79
2024/04/15 00:50:45;;;;;;;4.43;1.60;;;;;;;10.51;60.69;100914.63;8997860;26;20007;-79
2024/04/15 00:54:47;;;;;;;5.25;1.80;;;;;;;10.58;60.18;100915.59;9004268;26;20050;-79
2024/04/15 00:58:49;;;;;;;9.52;2.17;;;;;;;10.54;58.88;100884.81;9009352;26;19999;-79
2024/04/15 01:02:51;;;;;;;7.13;1.50;;;;;;;10.48;58.75;100897.06;9003648;26;20003;-78
2024/04/15 01:06:53;;;;;;;7.28;2.42;;;;;;;10.55;57.93;100897.19;9035652;26;20019;-79
2024/04/15 01:10:55;;;;;;;6.15;1.63;;;;;;;10.39;59.27;100873.16;9064266;26;19999;-79
2024/04/15 01:15:01;;;;;;;6.65;1.50;;;;;;;10.47;58.36;100862.41;9060470;26;20000;-79
2024/04/15 01:19:03;;;;;;;7.20;1.50;;;;;;;10.76;57.88;100861.75;9005990;26;19994;-79
2024/04/15 01:23:10;;;;;;;6.22;1.58;;;;;;;10.52;57.53;100852.84;9055838;26;20014;-79
2024/04/15 01:27:12;;;;;;;6.28;1.52;;;;;;;10.26;59.37;100860.31;9061111;26;20044;-79
2024/04/15 01:31:14;;;;;;;6.40;1.55;;;;;;;10.47;59.39;100849.84;9055927;26;20022;-78
2024/04/15 01:35:19;;;;;;;6.88;1.67;;;;;;;10.37;58.97;100846.53;9048215;26;20012;-79
2024/04/15 01:39:21;;;;;;;5.25;1.40;;;;;;;10.49;58.09;100842.47;8998646;26;20475;-79
2024/04/15 01:43:22;;;;;;;5.28;1.58;;;;;;;10.60;58.65;100833.22;8995626;26;20000;-79
2024/04/15 01:47:24;;;;;;;8.13;1.77;;;;;;;10.53;58.54;100848.31;9034181;26;19997;-79
2024/04/15 01:51:27;;;;;;;5.47;1.80;;;;;;;10.51;58.68;100842.31;9059671;26;20052;-79
2024/04/15 01:55:28;;;;;;;8.27;1.70;;;;;;;10.42;60.00;100829.97;9041161;26;20008;-78
2024/04/15 01:59:30;;;;;;;10.65;1.70;;;;;;;10.63;59.41;100815.97;8949991;26;20010;-79
2024/04/15 02:03:32;;;;;;;8.18;1.20;;;;;;;10.37;60.07;100811.72;8918761;26;20051;-79
2024/04/15 02:07:36;;;;;;;11.30;2.38;;;;;;;10.47;59.97;100801.63;8918328;26;20000;-78
2024/04/15 02:11:38;;;;;;;4.35;1.20;;;;;;;10.51;59.49;100791.41;8917672;26;20005;-79
2024/04/15 02:15:40;;;;;;;13.13;2.38;;;;;;;10.40;59.02;100792.63;8959636;26;20004;-79
2024/04/15 02:19:42;;;;;;;6.18;1.73;;;;;;;10.03;60.58;100784.38;8977927;26;20463;-79
2024/04/15 02:23:44;;;;;;;6.95;1.73;;;;;;;10.15;61.49;100791.88;8981680;26;20443;-79
2024/04/15 02:27:45;;;;;;;10.90;1.67;;;;;;;10.07;60.33;100799.09;9020557;26;20010;-79
2024/04/15 02:31:50;;;;;;;8.13;1.75;;;;;;;9.81;61.08;100797.47;9037228;26;20007;-79
2024/04/15 02:35:51;;;;;;;6.40;1.88;;;;;;;10.08;60.35;100785.53;9023698;26;20011;-79
2024/04/15 02:39:53;;;;;;;10.30;2.15;;;;;;;9.88;59.79;100789.59;8979582;26;20457;-79
2024/04/15 02:43:55;;;;;;;5.63;1.77;;;;;;;9.97;59.68;100781.38;8977576;26;19999;-78
2024/04/15 02:47:56;;;;;;;7.18;2.22;;;;;;;10.14;60.59;100787.50;9025609;26;20377;-78
2024/04/15 02:51:58;;;;;;;3.78;2.00;;;;;;;10.12;59.78;100776.16;9031944;26;20003;-79
2024/04/15 02:56:01;;;;;;;8.23;1.83;;;;;;;10.34;58.01;100763.84;9039679;26;20007;-79
2024/04/15 03:00:03;;;;;;;6.65;1.80;;;;;;;9.67;61.66;100780.28;9039673;26;20018;-79
2024/04/15 03:04:05;;;;;;;8.30;2.20;;;;;;;9.76;62.33;100770.41;9039792;26;20364;-79
2024/04/15 03:08:06;;;;;;;5.57;1.40;;;;;;;10.16;61.13;100761.41;8991485;26;20059;-79
2024/04/15 03:12:08;;;;;;;6.20;1.73;;;;;;;10.13;59.77;100737.66;8978782;26;20487;-79
2024/04/15 03:16:10;;;;;;;8.75;1.50;;;;;;;9.63;61.69;100749.53;8996575;26;19998;-79
2024/04/15 03:20:27;;;;;;;3.58;1.55;;;;;;;9.57;61.02;100755.56;9040008;26;20006;-79
2024/04/15 03:24:29;;;;;;;10.18;1.95;;;;;;;9.44;58.08;100749.91;9034229;26;20031;-78
2024/04/15 03:28:31;;;;;;;4.97;1.70;;;;;;;9.43;58.47;100739.38;8981997;26;20019;-79
2024/04/15 03:32:33;;;;;;;7.60;1.92;;;;;;;9.66;57.94;100724.25;8978008;26;20039;-79
2024/04/15 03:36:35;;;;;;;8.07;1.75;;;;;;;10.04;57.52;100713.75;8979664;26;20459;-79
2024/04/15 03:40:36;;;;;;;5.25;1.48;;;;;;;9.78;58.81;100712.19;8983349;26;20014;-79
2024/04/15 03:44:38;;;;;;;6.10;1.70;;;;;;;9.39;61.08;100706.78;8980742;26;20429;-79
2024/04/15 03:48:43;;;;;;;4.53;1.25;;;;;;;9.31;63.27;100720.16;9035530;26;20006;-79
2024/04/15 03:52:44;;;;;;;5.38;1.35;;;;;;;9.51;61.89;100701.91;9018116;26;20053;-79
2024/04/15 03:56:46;;;;;;;5.25;1.23;;;;;;;9.75;60.55;100685.78;8997402;26;20022;-79
2024/04/15 04:00:48;;;;;;;3.95;1.30;;;;;;;9.77;64.14;100693.66;8975782;26;20000;-79
2024/04/15 04:04:50;;;;;;;4.80;1.55;;;;;;;9.67;64.57;100672.44;8975997;26;20451;-79
2024/04/15 04:08:52;;;;;;;6.45;1.60;;;;;;;9.42;68.11;100652.13;9034512;26;20350;-78
2024/04/15 04:12:54;;;;;;;9.48;2.00;;;;;;;9.30;70.25;100646.31;9035772;26;20014;-79
2024/04/15 04:16:56;;;;;;;5.75;1.48;;;;;;;9.06;71.30;100640.00;9005773;26;20050;-79
2024/04/15 04:20:57;;;;;;;6.93;1.70;;;;;;;9.15;71.19;100639.97;8976765;26;20018;-79
2024/04/15 04:24:59;;;;;;;8.18;1.85;;;;;;;9.10;71.81;100637.81;8977211;26;20398;-79
2024/04/15 04:29:01;;;;;;;7.07;1.52;;;;;;;9.11;71.26;100636.00;9036688;26;20014;-79
2024/04/15 04:33:03;;;;;;;5.90;1.38;;;;;;;9.14;71.36;100622.28;9036620;26;20031;-78
2024/04/15 04:37:05;;;;;;;7.43;1.80;;;;;;;8.84;74.10;100621.97;9002639;26;20072;-80
2024/04/15 04:41:07;;;;;;;9.57;1.85;;;;;;;8.93;75.26;100633.50;8973642;26;20459;-80
2024/04/15 04:45:09;;;;;;;8.57;1.80;;;;;;;9.06;75.09;100640.00;8976315;26;20004;-78
2024/04/15 04:49:11;;;;;;;6.63;1.90;;;;;;;8.79;76.86;100653.72;9022842;26;20003;-78
2024/04/15 04:53:13;;;;;;;11.10;2.03;;;;;;;8.59;78.88;100653.22;8936476;26;20016;-78
2024/04/15 04:57:18;;;;;;;5.38;2.03;;;;;;;8.44;81.99;100678.91;8962374;26;20035;-78
2024/04/15 05:01:19;;;;;;;10.38;2.35;;;;;;;8.37;80.96;100696.59;8973324;26;20011;-78
2024/04/15 05:05:21;;;;;;;5.32;2.05;;;;;;;8.62;76.14;100676.91;8978123;26;20081;-78
2024/04/15 05:09:23;;;;;;;8.20;1.90;;;;;;;8.88;71.74;100683.97;8994128;26;20028;-78
2024/04/15 05:13:25;;;;;;;19.70;2.53;;;;;;;8.79;68.70;100687.63;8972448;26;20003;-78
2024/04/15 05:17:26;;;;;;;10.02;1.95;;;;;;;8.75;67.91;100690.63;9008074;26;20491;-78
2024/04/15 05:21:28;;;;;;;5.13;1.73;;;;;;;8.96;67.24;100690.13;9035161;26;20003;-79
2024/04/15 05:25:36;;;;;;;8.73;1.52;;;;;;;8.97;66.75;100680.25;8990651;26;20160;-79
2024/04/15 05:29:37;;;;;;;6.18;2.13;;;;;;;9.20;65.56;100670.56;9036462;26;19998;-78
2024/04/15 05:33:39;;;;;;;4.97;1.63;;;;;;;9.04;64.80;100678.59;9031324;26;20003;-78
2024/04/15 05:37:41;;;;;;;6.35;1.55;;;;;;;9.17;64.46;100670.03;8993163;26;20015;-78
2024/04/15 05:41:43;;;;;;;7.10;1.90;;;;;;;9.65;63.03;100664.56;8973530;26;20019;-79
2024/04/15 05:45:44;;;;;;;5.00;1.77;;;;;;;9.60;63.52;100642.03;9000849;26;19999;-79
2024/04/15 05:49:46;;;;;;;10.90;1.70;;;;;;;10.03;63.86;100651.34;8982164;26;20004;-79
2024/04/15 05:53:48;;;;;;;5.68;1.35;;;;;;;10.03;61.01;100642.50;9000790;26;19999;-79
2024/04/15 05:57:49;;;;;;;5.05;1.85;;;;;;;10.06;60.93;100639.47;9024271;26;20006;-79
2024/04/15 06:01:51;;;;;;;8.43;1.80;;;;;;;10.39;59.78;100635.59;9035161;26;20056;-79
2024/04/15 06:05:53;;;;;;;9.05;2.13;;;;;;;10.48;58.68;100636.38;9030216;26;20081;-79
2024/04/15 06:09:54;;;;;;;7.10;2.08;;;;;;;10.47;59.43;100618.66;8983767;26;20027;-79
2024/04/15 06:13:56;;;;;;;8.85;1.60;;;;;;;10.46;59.58;100615.13;8976603;26;20004;-79
2024/04/15 06:17:58;;;;;;;7.47;1.77;;;;;;;10.46;57.72;100623.19;9021089;26;20331;-79
2024/04/15 06:22:03;;;;;;;7.88;1.55;;;;;;;10.41;58.00;100625.56;8976060;26;20137;-79
2024/04/15 06:26:04;;;;;;;7.03;1.55;;;;;;;10.41;58.29;100617.53;8985361;26;20079;-80
2024/04/15 06:30:08;;;;;;;4.78;1.48;;;;;;;10.51;57.78;100615.44;9034993;26;20006;-78
2024/04/15 06:34:10;;;;;;;8.35;2.45;;;;;;;10.46;56.92;100608.94;9037171;26;20014;-78
2024/04/15 06:38:13;;;;;;;9.13;1.90;;;;;;;10.52;58.64;100601.03;8997705;26;20015;-78
2024/04/15 06:42:15;;;;;;;7.43;1.88;;;;;;;10.02;61.51;100606.03;8984762;26;20086;-78
2024/04/15 06:46:17;;;;;;;11.25;2.15;;;;;;;10.04;61.36;100607.50;8994889;26;20023;-78
2024/04/15 06:50:19;;;;;;;11.90;2.08;;;;;;;10.30;61.14;100603.72;8925306;26;20000;-78
2024/04/15 06:54:20;;;;;;;6.93;1.92;;;;;;;10.79;61.84;100604.97;8923097;26;20019;-79
2024/04/15 06:58:22;;;;;;;6.03;1.67;;;;;;;10.39;62.03;100595.44;9014238;26;20019;-78
2024/04/15 07:02:24;;;;;;;16.75;2.00;;;;;;;10.54;65.20;100584.75;9031120;26;20018;-79
2024/04/15 07:06:25;;;;;;;5.53;2.05;;;;;;;10.48;64.93;100572.94;9024778;26;20004;-80
2024/04/15 07:10:27;;;;;;;11.50;2.85;;;;;;;10.68;65.58;100573.25;8984522;26;20032;-80
2024/04/15 07:14:29;;;;;;;7.93;2.25;;;;;;;10.58;66.55;100568.13;8990716;26;19999;-80
2024/04/15 07:18:30;;;;;;;7.22;2.13;;;;;;;10.88;65.75;100560.16;9032216;26;20006;-79
2024/04/15 07:22:32;;;;;;;4.32;1.77;;;;;;;11.08;67.26;100553.22;9044697;26;20010;-79
2024/04/15 07:26:34;;;;;;;6.82;2.30;;;;;;;10.46;70.26;100553.53;9022229;26;20027;-79
2024/04/15 07:30:35;;;;;;;4.45;2.20;;;;;;;10.65;72.20;100546.84;8982119;26;20006;-78
2024/04/15 07:34:37;;;;;;;7.50;2.05;;;;;;;10.80;73.27;100542.31;8982151;26;20022;-78
2024/04/15 07:38:39;;;;;;;9.20;2.70;;;;;;;10.37;74.89;100540.38;8980597;26;20003;-80
2024/04/15 07:42:40;;;;;;;8.15;2.28;;;;;;;10.66;74.46;100528.91;8970901;26;20028;-79
2024/04/15 07:46:45;;;;;;;9.63;2.53;;;;;;;10.18;78.11;100522.94;8972623;26;20027;-78
2024/04/15 07:50:47;;;;;;;10.98;3.15;;;;;;;10.61;76.82;100517.91;8979068;26;20072;-78
2024/04/15 07:54:49;;;;;;;5.90;2.47;;;;;;;10.61;76.81;100513.38;8979738;26;20338;-78
2024/04/15 07:58:50;;;;;;;5.50;2.20;;;;;;;11.17;75.54;100511.09;8979558;26;20003;-78
2024/04/15 08:02:52;;;;;;;6.55;2.50;;;;;;;10.91;73.45;100511.53;8975233;26;20011;-78
2024/04/15 08:06:54;;;;;;;7.47;3.00;;;;;;;10.82;74.25;100508.13;8996525;26;20014;-78
2024/04/15 08:11:13;;;;;;;7.70;2.72;;;;;;;11.06;74.41;100515.06;9033928;26;20014;-79
2024/04/15 08:15:14;;;;;;;5.30;1.75;;;;;;;10.58;75.97;100500.34;8984125;26;20033;-78
2024/04/15 08:19:16;;;;;;;7.97;2.65;;;;;;;11.01;72.96;100503.22;9035463;26;20004;-78
2024/04/15 08:23:18;;;;;;;3.42;2.10;;;;;;;10.79;75.15;100505.00;9036262;26;20489;-80
2024/04/15 08:27:20;;;;;;;7.20;2.50;;;;;;;11.22;71.63;100497.09;9005425;26;20027;-78
2024/04/15 08:31:22;;;;;;;6.63;3.15;;;;;;;11.37;71.71;100489.88;8974427;26;20019;-78
2024/04/15 08:35:24;;;;;;;5.88;2.78;;;;;;;11.64;70.87;100482.97;8974339;26;20447;-79
2024/04/15 08:39:26;;;;;;;32.88;4.22;;;;;;;11.80;70.80;100476.53;9033438;26;20075;-79
2024/04/15 08:43:28;;;;;;;8.63;2.67;;;;;;;12.14;63.84;100473.97;9034806;26;20002;-79
2024/04/15 08:47:30;;;;;;;5.78;2.28;;;;;;;11.89;65.96;100473.53;9027086;26;20075;-78
2024/04/15 08:51:33;;;;;;;10.05;1.83;;;;;;;12.18;64.82;100461.84;9032655;26;20003;-79
2024/04/15 08:55:35;;;;;;;9.40;2.25;;;;;;;12.34;63.76;100452.66;9031896;26;20076;-79
2024/04/15 08:59:39;;;;;;;4.07;1.75;;;;;;;12.26;63.49;100445.56;8973801;26;20003;-78
2024/04/15 09:03:40;;;;;;;12.57;2.60;;;;;;;13.25;61.48;100440.78;8973848;26;20004;-79
2024/04/15 09:07:44;;;;;;;11.98;2.47;;;;;;;13.52;62.21;100433.59;9006136;26;20011;-79
2024/04/15 09:11:48;;;;;;;11.57;3.05;;;;;;;12.34;61.67;100429.31;9033510;26;20018;-78
2024/04/15 09:15:55;;;;;;;22.25;3.35;;;;;;;12.05;63.31;100421.44;9021955;26;20000;-78
2024/04/15 09:20:22;;;;;;;5.55;2.25;;;;;;;12.40;63.17;100411.56;9142394;25;20310;-79
2024/04/15 09:24:44;;;;;;;9.13;2.55;;;;;;;12.49;61.09;100401.47;9124255;26;20034;-79
2024/04/15 09:28:46;;;;;;;8.20;2.65;;;;;;;13.47;58.62;100400.25;9125993;25;20013;-79
2024/04/15 09:32:48;;;;;;;10.00;2.63;;;;;;;13.84;57.96;100385.41;9126583;26;20002;-79
2024/04/15 09:36:51;;;;;;;30.02;2.88;;;;;;;13.86;56.80;100373.38;9093344;26;19998;-79
2024/04/15 09:40:52;;;;;;;14.63;2.60;;;;;;;14.50;54.09;100366.50;9093531;26;20020;-79
2024/04/15 09:44:57;;;;;;;15.75;2.58;;;;;;;13.72;54.89;100358.28;9126671;26;20016;-78
2024/04/15 09:49:03;;;;;;;14.85;2.95;;;;;;;13.32;55.45;100359.25;9124567;25;20009;-78
2024/04/15 09:53:06;;;;;;;12.10;1.67;;;;;;;14.10;53.78;100346.88;9125361;26;20002;-79
2024/04/15 09:57:36;;;;;;;6.60;1.75;;;;;;;14.72;54.64;100332.81;9125576;26;20002;-79
2024/04/15 10:01:39;;;;;;;4.03;1.40;;;;;;;14.66;51.94;100332.84;9122339;26;20018;-79
2024/04/15 10:05:43;;;;;;;3.60;1.25;;;;;;;14.39;53.07;100326.66;9127388;26;20002;-79
2024/04/15 10:09:46;;;;;;;2.50;1.25;;;;;;;13.79;55.03;100312.50;9092074;26;20026;-79
2024/04/15 10:13:48;;;;;;;5.03;1.80;;;;;;;13.71;55.18;100310.84;9123748;26;20013;-78
2024/04/15 10:17:57;;;;;;;10.00;1.95;;;;;;;13.70;55.52;100302.97;9088012;25;20001;-78
2024/04/15 10:21:59;;;;;;;;;;;;;;;13.38;56.24;100299.25;9124184;26;20050;-78
2024/04/15 10:26:01;;;;;;;34.17;4.13;;;;;;;13.68;56.80;100280.81;9124492;26;19991;-78
2024/04/15 10:30:18;;;;;;;5.05;1.20;;;;;;;13.39;56.85;100274.00;9109108;26;20013;-79
2024/04/15 10:34:24;;;;;;;13.68;2.13;;;;;;;13.32;58.60;100287.44;9097287;26;20375;-78
2024/04/15 10:38:27;;;;;;;4.90;1.50;;;;;;;13.13;57.03;100270.19;9087089;26;20294;-78
2024/04/15 10:42:29;;;;;;;8.70;1.83;;;;;;;12.91;57.13;100274.09;9098293;26;20002;-78
2024/04/15 10:46:32;;;;;;;3.55;1.60;;;;;;;12.83;59.35;100258.97;9096958;26;20022;-78
2024/04/15 10:50:33;;;;;;;2.95;1.50;;;;;;;12.46;60.27;100272.91;9097977;26;20020;-78
2024/04/15 10:54:36;;;;;;;19.08;3.28;;;;;;;12.63;60.73;100256.22;9097559;26;20342;-78
2024/04/15 10:58:38;;;;;;;14.65;2.47;;;;;;;12.33;62.44;100244.97;9066006;26;19998;-78
2024/04/15 11:02:44;;;;;;;10.23;2.83;;;;;;;12.48;60.87;100247.50;9097800;26;20446;-79
2024/04/15 11:06:48;;;;;;;21.52;2.67;;;;;;;12.58;60.66;100247.13;9097271;26;20079;-78
2024/04/15 11:10:50;;;;;;;8.35;1.70;;;;;;;12.13;59.42;100241.34;9064583;26;20006;-78
2024/04/15 11:14:55;;;;;;;3.42;1.50;;;;;;;11.89;60.34;100240.00;9108977;26;20452;-79
2024/04/15 11:19:06;;;;;;;7.25;2.00;;;;;;;11.75;66.40;100235.53;9103540;26;20009;-78
2024/04/15 11:23:08;;;;;;;4.30;2.42;;;;;;;11.25;70.34;100240.09;9099306;26;19998;-78
2024/04/15 11:27:11;;;;;;;11.82;2.90;;;;;;;11.38;72.46;100220.63;9098764;26;20005;-79
2024/04/15 11:31:13;;;;;;;5.45;2.83;;;;;;;11.33;72.35;100223.06;9066025;26;20315;-79
2024/04/15 11:35:15;;;;;;;19.17;6.78;;;;;;;11.59;71.56;100220.56;9097647;26;20006;-79
2024/04/15 11:39:16;;;;;;;17.30;4.57;;;;;;;11.85;70.63;100203.84;9097398;26;20047;-78
2024/04/15 11:43:20;;;;;;;7.20;3.10;;;;;;;13.09;64.13;100190.13;9095982;26;20066;-79
2024/04/15 11:47:22;;;;;;;19.60;4.53;;;;;;;12.97;63.09;100195.28;9065574;26;20002;-79
2024/04/15 11:51:24;;;;;;;13.00;4.00;;;;;;;13.75;59.88;100184.72;9098005;26;20042;-79
2024/04/15 11:55:26;;;;;;;18.05;3.90;;;;;;;13.41;61.13;100167.81;9064914;26;20012;-79
2024/04/15 11:59:28;;;;;;;13.65;3.33;;;;;;;13.88;58.78;100157.75;9096498;26;20017;-79
2024/04/15 12:03:31;;;;;;;15.32;4.63;;;;;;;13.21;63.22;100145.50;9093635;26;20051;-79
2024/04/15 12:07:33;;;;;;;13.48;4.90;;;;;;;13.40;62.34;100116.91;9094019;26;20017;-78
2024/04/15 12:11:35;;;;;;;12.43;4.32;;;;;;;13.51;60.88;100100.09;9101008;26;20002;-79
2024/04/15 12:15:36;;;;;;;13.85;4.22;;;;;;;14.22;57.90;100086.50;9066355;26;20015;-79
2024/04/15 12:19:38;;;;;;;11.23;3.38;;;;;;;13.87;59.24;100064.53;9093169;26;20009;-78
2024/04/15 12:23:40;;;;;;;18.92;4.53;;;;;;;14.58;57.60;100052.72;9093799;26;20471;-79
2024/04/15 12:27:44;;;;;;;30.90;5.88;;;;;;;13.40;61.36;100044.25;9093009;26;20030;-78
2024/04/15 12:31:50;;;;;;;39.75;6.82;;;;;;;13.95;61.56;100031.97;9090859;26;20021;-78
2024/04/15 12:35:52;;;;;;;29.45;5.88;;;;;;;14.21;59.74;100028.28;9091696;26;20074;-78
2024/04/15 12:39:54;;;;;;;11.50;5.00;;;;;;;14.14;58.64;100028.34;9093852;26;20331;-78
2024/04/15 12:43:56;;;;;;;19.80;6.53;;;;;;;13.93;61.50;100022.47;9093871;26;20013;-79
2024/04/15 12:47:59;;;;;;;10.07;5.53;;;;;;;13.39;61.21;100004.94;9090797;26;20509;-79
2024/04/15 12:52:01;;;;;;;16.90;6.22;;;;;;;13.83;59.52;99991.44;9088797;26;19998;-79
2024/04/15 12:56:02;;;;;;;29.88;6.78;;;;;;;13.99;59.17;99976.63;9087129;26;20002;-79
2024/04/15 13:00:05;;;;;;;18.52;6.07;;;;;;;13.45;59.93;99969.91;9092834;26;20342;-78
2024/04/15 13:04:07;;;;;;;12.20;4.82;;;;;;;14.59;58.59;99951.97;9091154;26;20002;-78
2024/04/15 13:08:09;;;;;;;12.18;4.75;;;;;;;14.55;57.11;99937.25;9060075;26;20009;-78
2024/04/15 13:12:11;;;;;;;8.63;4.28;;;;;;;14.67;56.83;99925.50;9091928;26;20051;-80
2024/04/15 13:16:13;;;;;;;27.65;6.00;;;;;;;14.60;59.11;99924.78;9092292;26;20014;-78
2024/04/15 13:20:17;;;;;;;17.77;4.35;;;;;;;14.39;57.86;99899.00;9092290;26;20017;-78
2024/04/15 13:24:19;;;;;;;5.00;3.47;;;;;;;14.29;57.62;99890.63;9092056;26;20002;-79
2024/04/15 13:28:20;;;;;;;8.88;3.05;;;;;;;14.07;57.98;99876.72;9083163;26;20066;-78
2024/04/15 13:32:22;;;;;;;9.32;3.47;;;;;;;14.55;54.46;99868.00;9047342;26;20042;-79
2024/04/15 13:36:24;;;;;;;4.15;2.78;;;;;;;14.89;54.96;99858.47;9091696;26;20042;-79
2024/04/15 13:40:26;;;;;;;9.00;2.92;;;;;;;14.04;56.41;99854.78;9093184;26;20006;-79
2024/04/15 13:44:28;;;;;;;7.97;3.10;;;;;;;14.06;56.50;99850.84;9093577;26;20014;-79
2024/04/15 13:48:30;;;;;;;11.60;3.55;;;;;;;14.51;55.81;99839.84;9061216;26;20006;-79
2024/04/15 13:52:31;;;;;;;5.18;2.78;;;;;;;14.88;55.94;99826.34;9093388;26;20002;-79
2024/04/15 13:56:33;;;;;;;9.07;3.63;;;;;;;15.46;52.54;99807.69;9092716;26;20006;-79
2024/04/15 14:00:35;;;;;;;20.90;4.32;;;;;;;15.21;54.75;99812.41;9061880;26;20013;-79
2024/04/15 14:04:37;;;;;;;5.05;2.30;;;;;;;14.51;54.58;99798.59;9094572;26;20002;-79
2024/04/15 14:08:39;;;;;;;8.98;3.08;;;;;;;14.11;56.24;99794.44;9098694;26;20050;-79
2024/04/15 14:12:40;;;;;;;6.72;2.65;;;;;;;14.30;57.16;99778.28;9097213;26;20006;-78
2024/04/15 14:16:46;;;;;;;4.43;2.22;;;;;;;14.50;55.14;99767.31;9111115;26;20002;-78
2024/04/15 14:20:48;;;;;;;4.57;3.47;;;;;;;14.36;54.96;99764.72;9113163;26;20012;-78
2024/04/15 14:24:50;;;;;;;5.68;2.20;;;;;;;14.42;56.51;99753.06;9102863;26;20390;-78
2024/04/15 14:28:52;;;;;;;3.50;2.17;;;;;;;13.99;56.36;99736.97;9097107;26;20002;-80
2024/04/15 14:32:56;;;;;;;3.40;2.28;;;;;;;14.46;55.05;99729.22;9098898;26;20441;-79
2024/04/15 14:37:01;;;;;;;4.55;2.30;;;;;;;14.47;54.99;99720.06;9098416;26;20022;-79
2024/04/15 14:41:03;;;;;;;5.05;2.30;;;;;;;14.46;55.90;99705.78;9066669;26;20014;-79
2024/04/15 14:45:05;;;;;;;6.22;2.47;;;;;;;14.46;56.48;99692.31;9098851;26;20010;-79
2024/04/15 14:49:07;;;;;;;3.40;2.20;;;;;;;14.50;55.13;99679.19;9066194;26;20037;-79
2024/04/15 14:53:10;;;;;;;6.60;2.63;;;;;;;14.17;54.30;99680.41;9063231;26;20066;-79
2024/04/15 14:57:12;;;;;;;5.25;3.28;;;;;;;14.59;53.86;99663.53;9094278;26;20464;-79
2024/04/15 15:01:13;;;;;;;3.95;2.50;;;;;;;14.57;53.31;99671.81;9063319;26;19998;-79
2024/04/15 15:05:16;;;;;;;3.13;2.20;;;;;;;14.47;52.71;99645.44;9096435;26;20006;-79
2024/04/15 15:09:18;;;;;;;3.92;2.00;;;;;;;15.46;51.99;99631.41;9064317;26;20002;-79
2024/04/15 15:13:20;;;;;;;4.65;2.58;;;;;;;15.02;51.51;99630.91;9065547;26;20355;-79
2024/04/15 15:17:22;;;;;;;5.80;2.67;;;;;;;14.68;51.13;99616.31;9035281;26;20002;-79
2024/04/15 15:21:24;;;;;;;4.55;1.92;;;;;;;14.41;54.12;99611.28;9095715;26;20025;-79
2024/04/15 15:25:29;;;;;;;3.97;2.50;;;;;;;14.64;52.45;99597.09;9067663;26;19998;-79
2024/04/15 15:29:31;;;;;;;7.32;2.53;;;;;;;14.80;51.39;99592.91;9097034;26;20006;-79
2024/04/15 15:33:33;;;;;;;4.47;2.40;;;;;;;15.05;50.24;99580.00;9089591;26;20461;-80
2024/04/15 15:37:35;;;;;;;2.78;2.22;;;;;;;15.05;50.17;99563.84;9094277;26;20020;-78
2024/04/15 15:41:37;;;;;;;6.53;1.80;;;;;;;14.92;50.38;99555.13;9094497;26;20090;-79
2024/04/15 15:45:39;;;;;;;4.50;1.90;;;;;;;14.88;51.15;99540.50;9060976;26;20061;-78
2024/04/15 15:49:41;;;;;;;4.28;2.20;;;;;;;14.66;52.29;99524.06;9094092;26;20022;-79
2024/04/15 15:53:43;;;;;;;4.78;2.40;;;;;;;14.27;53.40;99512.84;9060151;26;20030;-77
2024/04/15 15:57:45;;;;;;;4.07;2.10;;;;;;;14.32;52.97;99509.44;9059119;26;20002;-78
2024/04/15 16:01:47;;;;;;;5.32;1.88;;;;;;;14.28;53.44;99492.13;9091030;26;20013;-78
2024/04/15 16:05:49;;;;;;;5.00;2.80;;;;;;;14.61;52.66;99476.25;9090182;26;20002;-79
2024/04/15 16:09:51;;;;;;;4.43;2.50;;;;;;;14.72;52.55;99470.03;9094387;26;20017;-85
2024/04/15 16:13:53;;;;;;;5.53;2.50;;;;;;;14.88;52.85;99462.28;9092958;26;20002;-78
2024/04/15 16:17:55;;;;;;;3.22;2.30;;;;;;;14.65;53.70;99458.56;9093691;26;20353;-79
2024/04/15 16:21:57;;;;;;;4.20;2.47;;;;;;;14.53;53.67;99451.50;9075285;26;20007;-78
2024/04/15 16:25:59;;;;;;;5.78;2.53;;;;;;;14.42;54.85;99428.88;9029561;26;20340;-78
2024/04/15 16:30:00;;;;;;;3.75;2.00;;;;;;;14.37;54.97;99423.34;9086685;26;20606;-79
2024/04/15 16:34:02;;;;;;;3.58;1.70;;;;;;;14.32;55.32;99415.16;9092639;26;20016;-78
2024/04/15 16:38:05;;;;;;;5.75;2.22;;;;;;;14.42;56.04;99410.00;9089279;26;20051;-78
2024/04/15 16:42:06;;;;;;;3.50;2.30;;;;;;;14.15;56.74;99405.06;9092302;26;20022;-79
2024/04/15 16:46:08;;;;;;;4.15;2.25;;;;;;;14.27;56.23;99386.22;9090589;26;20002;-78
2024/04/15 16:50:10;;;;;;;4.40;2.10;;;;;;;14.35;56.20;99388.56;9089826;26;20009;-78
2024/04/15 16:54:12;;;;;;;5.25;2.55;;;;;;;14.29;57.36;99373.34;9089635;26;20078;-78
2024/04/15 16:58:13;;;;;;;4.45;2.50;;;;;;;14.47;56.76;99365.16;9091261;26;20002;-78
2024/04/15 17:02:15;;;;;;;6.15;2.45;;;;;;;15.26;55.50;99334.94;9089462;26;20506;-78
2024/04/15 17:06:17;;;;;;;7.20;2.05;;;;;;;15.21;55.68;99335.69;9090824;26;20002;-78
2024/04/15 17:10:19;;;;;;;3.80;2.30;;;;;;;15.75;55.54;99319.13;9090014;26;20002;-78
2024/04/15 17:14:21;;;;;;;2.83;1.88;;;;;;;15.64;54.07;99302.75;9092668;26;20013;-79
2024/04/15 17:18:23;;;;;;;2.70;1.90;;;;;;;14.95;55.63;99317.38;9093807;26;20039;-78
2024/04/15 17:22:25;;;;;;;3.88;2.17;;;;;;;14.68;56.93;99298.22;9100965;26;20071;-79
2024/04/15 17:26:27;;;;;;;5.32;2.75;;;;;;;14.60;57.84;99299.41;9098332;26;20006;-79
2024/04/15 17:30:29;;;;;;;5.13;2.45;;;;;;;14.18;58.92;99302.25;9100783;26;20002;-79
2024/04/15 17:34:30;;;;;;;5.22;2.10;;;;;;;14.06;60.18;99300.63;9105765;26;20017;-79
2024/04/15 17:38:33;;;;;;;7.80;2.83;;;;;;;13.75;61.20;99299.88;9104848;26;20407;-79
2024/04/15 17:42:34;;;;;;;7.45;2.28;;;;;;;13.70;61.67;99288.97;9084451;26;20044;-79
2024/04/15 17:46:36;;;;;;;7.43;2.80;;;;;;;13.61;62.36;99284.19;9043099;26;20066;-80
2024/04/15 17:50:38;;;;;;;3.78;2.10;;;;;;;13.50;62.83;99275.03;9106315;26;20026;-78
2024/04/15 17:54:40;;;;;;;8.00;2.58;;;;;;;13.39;64.64;99249.75;9122702;26;20008;-78
2024/04/15 17:58:42;;;;;;;9.85;2.42;;;;;;;13.44;64.32;99241.00;9093430;25;19994;-79
2024/04/15 18:02:44;;;;;;;8.27;2.20;;;;;;;13.43;65.18;99250.94;9116838;26;19998;-78
2024/04/15 18:06:46;;;;;;;6.72;2.63;;;;;;;12.94;66.72;99234.03;9115352;26;20027;-79
2024/04/15 18:10:47;;;;;;;6.03;2.83;;;;;;;12.75;67.24;99228.94;9118560;26;20024;-78
2024/04/15 18:14:49;;;;;;;4.38;2.35;;;;;;;12.77;66.63;99213.41;9121961;26;20002;-78
2024/04/15 18:18:51;;;;;;;4.05;2.53;;;;;;;12.57;67.01;99206.44;9085525;26;20009;-78
2024/04/15 18:22:52;;;;;;;4.10;2.58;;;;;;;12.50;67.16;99205.72;9099427;26;20082;-78
2024/04/15 18:26:54;;;;;;;4.95;2.42;;;;;;;12.75;66.04;99204.75;9110795;26;20013;-77
2024/04/15 18:30:56;;;;;;;5.30;3.13;;;;;;;12.43;68.12;99207.66;9099685;26;20013;-78
2024/04/15 18:34:58;;;;;;;5.72;2.70;;;;;;;12.37;67.79;99204.00;9121560;26;20434;-79
2024/04/15 18:38:59;;;;;;;8.90;2.67;;;;;;;12.56;67.26;99194.06;9107816;26;20060;-78
2024/04/15 18:43:01;;;;;;;6.63;2.85;;;;;;;12.43;67.02;99193.41;9114612;26;20002;-77
2024/04/15 18:47:04;;;;;;;3.53;2.40;;;;;;;12.35;67.43;99189.19;9114363;26;20016;-78
2024/04/15 18:51:05;;;;;;;3.45;2.28;;;;;;;12.44;67.20;99177.06;9082268;26;20002;-79